Time;durP1;ratioP1;P1;durP2;ratioP2;P2;SDS_P1;SDS_P2;PMS_P1;PMS_P2;Temp;Humidity;BMP_temperature;BMP_pressure;BME280_temperature;BME280_humidity;BME280_pressure;Samples;Min_cycle;Max_cycle;Signal;HPM_P1;HPM_P2
2021/12/21 00:01:28;;;;;;;29.00;12.13;;;;;;;-3.36;100.00;102622.44;5215956;28;20049;-74
2021/12/21 00:04:00;;;;;;;28.07;12.50;;;;;;;-3.38;100.00;102626.56;5215738;28;20065;-76
2021/12/21 00:06:31;;;;;;;25.20;13.60;;;;;;;-3.38;100.00;102623.09;5215560;28;20021;-75
2021/12/21 00:09:02;;;;;;;28.03;12.23;;;;;;;-3.42;100.00;102624.53;5215261;28;20030;-77
2021/12/21 00:11:34;;;;;;;29.93;12.23;;;;;;;-3.46;100.00;102617.47;5215621;28;20393;-75
2021/12/21 00:24:59;;;;;;;29.98;11.80;;;;;;;-3.58;100.00;102616.53;5195132;28;20038;-74
2021/12/21 00:27:31;;;;;;;30.00;11.47;;;;;;;-3.61;100.00;102609.53;5194877;28;20022;-75
2021/12/21 00:30:03;;;;;;;28.90;12.13;;;;;;;-3.61;100.00;102611.22;5194157;28;20033;-76
2021/12/21 00:32:35;;;;;;;30.70;12.02;;;;;;;-3.63;100.00;102610.22;5193706;28;20470;-74
2021/12/21 00:35:07;;;;;;;30.27;12.43;;;;;;;-3.68;100.00;102605.66;5194541;28;20034;-73
2021/12/21 00:37:41;;;;;;;31.35;13.20;;;;;;;-3.73;100.00;102612.06;5194930;28;20069;-76
2021/12/21 00:40:13;;;;;;;33.10;13.23;;;;;;;-3.70;100.00;102611.44;5194286;28;20030;-75
2021/12/21 00:42:44;;;;;;;33.70;12.48;;;;;;;-3.74;100.00;102602.63;5193034;28;20034;-74
2021/12/21 00:45:16;;;;;;;26.43;12.03;;;;;;;-3.76;100.00;102598.22;5193938;28;20038;-75
2021/12/21 00:47:49;;;;;;;28.97;12.80;;;;;;;-3.74;100.00;102607.75;5194405;28;20042;-74
2021/12/21 00:50:21;;;;;;;30.75;13.48;;;;;;;-3.74;100.00;102597.53;5194291;28;20530;-75
2021/12/21 00:52:53;;;;;;;31.60;13.20;;;;;;;-3.73;100.00;102593.34;5194051;28;20443;-73
2021/12/21 00:55:25;;;;;;;27.83;13.40;;;;;;;-3.75;100.00;102594.88;5194310;28;20058;-75
2021/12/21 00:57:56;;;;;;;25.67;13.27;;;;;;;-3.82;100.00;102601.19;5194251;28;20038;-73
2021/12/21 01:00:28;;;;;;;33.90;14.63;;;;;;;-3.86;100.00;102591.56;5193733;28;20178;-73
2021/12/21 01:03:05;;;;;;;24.60;11.33;;;;;;;-3.86;100.00;102587.34;5194449;28;20030;-75
2021/12/21 01:08:18;;;;;;;35.38;13.35;;;;;;;-3.93;100.00;102592.75;5194043;28;20038;-74
2021/12/21 01:13:37;;;;;;;32.70;13.23;;;;;;;-3.93;100.00;102602.03;5194213;28;20042;-74
2021/12/21 01:16:22;;;;;;;33.58;13.38;;;;;;;-3.95;100.00;102599.38;5193915;28;20100;-73
2021/12/21 01:21:41;;;;;;;26.83;13.43;;;;;;;-4.04;100.00;102604.69;5193854;28;20125;-76
2021/12/21 01:24:25;;;;;;;32.30;14.05;;;;;;;-4.01;100.00;102609.09;5193322;28;20023;-74
2021/12/21 01:30:12;;;;;;;27.73;13.65;;;;;;;-4.05;100.00;102602.88;5150618;29;20043;-73
2021/12/21 01:33:05;;;;;;;37.45;13.63;;;;;;;-4.08;100.00;102600.09;5150702;28;20105;-75
2021/12/21 01:35:42;;;;;;;32.33;13.50;;;;;;;-4.12;100.00;102592.13;5150900;29;20070;-75
2021/12/21 01:41:10;;;;;;;32.15;13.90;;;;;;;-4.16;100.00;102588.44;5150418;28;20043;-73
2021/12/21 01:43:50;;;;;;;25.95;12.48;;;;;;;-4.23;100.00;102586.22;5150618;29;20038;-74
2021/12/21 01:52:01;;;;;;;39.65;15.65;;;;;;;-4.28;100.00;102584.97;5150412;28;20047;-75
2021/12/21 01:54:33;;;;;;;32.80;14.90;;;;;;;-4.33;100.00;102581.19;5150043;28;20035;-73
2021/12/21 01:57:05;;;;;;;36.25;13.90;;;;;;;-4.36;100.00;102574.22;5150395;29;20170;-74
2021/12/21 01:59:38;;;;;;;31.75;13.32;;;;;;;-4.34;100.00;102575.22;5150830;28;20127;-75
2021/12/21 02:02:11;;;;;;;36.17;13.93;;;;;;;-4.36;100.00;102579.31;5150417;29;20049;-74
2021/12/21 02:04:43;;;;;;;33.05;14.57;;;;;;;-4.40;100.00;102580.69;5184341;28;20046;-74
2021/12/21 02:07:15;;;;;;;36.27;13.97;;;;;;;-4.47;100.00;102570.84;5193525;28;20462;-73
2021/12/21 02:09:46;;;;;;;35.50;14.57;;;;;;;-4.43;100.00;102571.94;5193374;28;20038;-73
2021/12/21 02:12:19;;;;;;;41.17;15.50;;;;;;;-4.41;100.00;102556.03;5176395;28;20042;-73
2021/12/21 02:14:57;;;;;;;;;;;;;;;-4.50;100.00;102559.53;5193990;28;20030;-73
2021/12/21 02:23:26;;;;;;;33.05;12.80;;;;;;;-4.47;100.00;102560.66;5193086;28;20478;-73
2021/12/21 02:31:14;;;;;;;34.05;13.20;;;;;;;-4.54;100.00;102554.97;5193041;28;20065;-73
2021/12/21 02:33:47;;;;;;;38.45;14.85;;;;;;;-4.53;100.00;102564.38;5192996;28;20042;-74
2021/12/21 02:36:18;;;;;;;34.33;13.55;;;;;;;-4.56;100.00;102561.59;5192695;28;20029;-75
2021/12/21 02:38:50;;;;;;;25.93;12.53;;;;;;;-4.61;100.00;102562.13;5192944;28;20462;-74
2021/12/21 02:41:21;;;;;;;26.83;13.60;;;;;;;-4.61;100.00;102557.03;5192614;28;20065;-74
2021/12/21 02:43:56;;;;;;;32.37;13.80;;;;;;;-4.61;100.00;102557.03;5192873;28;20065;-74
2021/12/21 02:46:27;;;;;;;36.05;14.65;;;;;;;-4.61;100.00;102561.25;5192595;28;20070;-74
2021/12/21 02:48:59;;;;;;;32.60;13.53;;;;;;;-4.61;100.00;102556.16;5192922;28;20517;-73
2021/12/21 02:51:30;;;;;;;32.30;14.20;;;;;;;-4.60;100.00;102556.28;5192622;28;20034;-74
2021/12/21 02:54:01;;;;;;;36.73;15.23;;;;;;;-4.70;100.00;102558.88;5193033;28;20057;-74
2021/12/21 02:56:33;;;;;;;35.57;14.27;;;;;;;-4.73;100.00;102551.00;5192447;28;20069;-72
2021/12/21 02:59:04;;;;;;;37.57;13.83;;;;;;;-4.77;100.00;102549.88;5192737;28;20471;-72
2021/12/21 03:01:36;;;;;;;35.40;13.83;;;;;;;-4.78;100.00;102550.66;5192845;28;20038;-74
2021/12/21 03:04:08;;;;;;;38.15;14.48;;;;;;;-4.78;100.00;102543.03;5193764;28;20029;-75
2021/12/21 03:14:52;;;;;;;37.17;15.57;;;;;;;-4.84;100.00;102550.16;5196174;28;20030;-76
2021/12/21 03:17:23;;;;;;;37.88;14.90;;;;;;;-4.93;100.00;102552.00;5196351;28;20026;-74
2021/12/21 03:19:55;;;;;;;27.90;15.17;;;;;;;-4.89;100.00;102543.84;5196125;28;20038;-73
2021/12/21 03:22:26;;;;;;;33.23;15.07;;;;;;;-4.86;100.00;102549.16;5196382;28;20081;-75
2021/12/21 03:24:57;;;;;;;35.30;15.10;;;;;;;-4.91;100.00;102550.47;5196407;28;20034;-74
2021/12/21 03:27:29;;;;;;;43.60;14.70;;;;;;;-4.96;100.00;102536.47;5196137;28;20040;-76
2021/12/21 03:30:00;;;;;;;36.07;14.87;;;;;;;-4.95;100.00;102541.69;5195898;28;20177;-74
2021/12/21 03:32:33;;;;;;;39.00;15.63;;;;;;;-4.90;100.00;102531.88;5195663;28;20113;-73
2021/12/21 03:35:06;;;;;;;40.50;17.55;;;;;;;-4.93;100.00;102536.72;5195702;28;20502;-76
2021/12/21 03:37:38;;;;;;;;;;;;;;;-5.01;100.00;102542.88;5196210;28;20061;-75
2021/12/21 03:40:09;;;;;;;41.70;16.30;;;;;;;-4.95;100.00;102539.16;5195818;28;19964;-74
2021/12/21 03:42:41;;;;;;;40.10;17.07;;;;;;;-4.98;100.00;102544.00;5195744;28;20026;-75
2021/12/21 03:45:12;;;;;;;39.40;15.87;;;;;;;-4.98;100.00;102535.47;5195950;28;20352;-75
2021/12/21 03:47:43;;;;;;;41.37;15.50;;;;;;;-5.00;100.00;102530.28;5195467;28;20049;-74
2021/12/21 03:50:19;;;;;;;45.43;16.93;;;;;;;-5.01;100.00;102538.66;5195260;28;20026;-74
2021/12/21 03:52:50;;;;;;;42.90;17.88;;;;;;;-5.03;100.00;102536.78;5195647;28;20018;-75
2021/12/21 03:55:22;;;;;;;41.27;15.77;;;;;;;-5.11;100.00;102536.16;5195653;28;20041;-74
2021/12/21 03:57:53;;;;;;;38.07;15.73;;;;;;;-5.06;100.00;102534.88;5195229;28;20114;-75
2021/12/21 04:00:27;;;;;;;41.33;16.57;;;;;;;-5.06;100.00;102531.44;5195200;28;20038;-74
2021/12/21 04:02:58;;;;;;;38.25;15.07;;;;;;;-5.06;100.00;102531.44;5195057;28;20027;-73
2021/12/21 04:05:30;;;;;;;36.47;16.47;;;;;;;-5.09;100.00;102529.53;5195424;28;20026;-73
2021/12/21 04:08:03;;;;;;;46.63;17.43;;;;;;;-5.11;100.00;102527.66;5195404;28;20026;-73
2021/12/21 04:10:34;;;;;;;39.38;16.13;;;;;;;-5.13;100.00;102530.97;5194966;28;20096;-75
2021/12/21 04:13:09;;;;;;;40.53;16.70;;;;;;;-5.15;100.00;102527.41;5194878;28;20792;-74
2021/12/21 04:15:44;;;;;;;36.42;14.52;;;;;;;-5.16;100.00;102528.19;5194485;28;20022;-74
2021/12/21 04:18:18;;;;;;;42.33;16.77;;;;;;;-5.13;100.00;102525.88;5195071;28;20038;-73
2021/12/21 04:20:50;;;;;;;39.35;16.60;;;;;;;-5.16;100.00;102529.84;5194684;28;20061;-74
2021/12/21 04:23:21;;;;;;;43.00;17.88;;;;;;;-5.18;100.00;102533.94;5195108;28;20573;-75
2021/12/21 04:25:53;;;;;;;36.07;16.33;;;;;;;-5.22;100.00;102531.91;5194993;28;20030;-74
2021/12/21 04:28:24;;;;;;;34.57;16.47;;;;;;;-5.21;100.00;102528.59;5193927;28;20113;-74
2021/12/21 04:30:56;;;;;;;45.57;15.77;;;;;;;-5.23;100.00;102528.47;5194736;28;20128;-74
2021/12/21 04:33:27;;;;;;;44.93;15.97;;;;;;;-5.24;100.00;102531.78;5195251;28;20162;-73
2021/12/21 04:36:00;;;;;;;39.10;16.23;;;;;;;-5.25;100.00;102531.66;5195718;28;20475;-75
2021/12/21 04:38:36;;;;;;;40.38;17.13;;;;;;;-5.25;100.00;102524.91;5194704;28;20030;-75
2021/12/21 04:41:15;;;;;;;41.58;16.45;;;;;;;-5.26;100.00;102524.81;5194545;28;20533;-74
2021/12/21 04:43:46;;;;;;;38.90;18.45;;;;;;;-5.36;100.00;102528.25;5194574;28;20109;-75
2021/12/21 04:46:18;;;;;;;46.47;16.80;;;;;;;-5.34;100.00;102516.56;5194394;28;20141;-76
2021/12/21 04:48:50;;;;;;;39.28;15.80;;;;;;;-5.39;100.00;102515.31;5194539;28;20542;-75
2021/12/21 04:51:21;;;;;;;45.70;17.60;;;;;;;-5.43;100.00;102515.81;5194282;28;20393;-74
2021/12/21 04:53:53;;;;;;;47.57;16.50;;;;;;;-5.38;100.00;102520.50;5193892;28;20040;-73
2021/12/21 04:56:24;;;;;;;49.80;17.50;;;;;;;-5.39;100.00;102518.75;5194416;28;20541;-75
2021/12/21 04:58:55;;;;;;;39.67;15.83;;;;;;;-5.41;100.00;102520.28;5194083;28;20033;-73
2021/12/21 05:01:27;;;;;;;45.00;18.77;;;;;;;-5.40;100.00;102516.94;5194336;28;20034;-75
2021/12/21 05:03:58;;;;;;;51.90;17.83;;;;;;;-5.41;100.00;102514.28;5194230;28;20486;-74
2021/12/21 05:06:30;;;;;;;47.17;17.10;;;;;;;-5.40;100.00;102518.63;5193855;28;20615;-73
2021/12/21 05:09:21;;;;;;;35.10;16.63;;;;;;;-5.46;100.00;102523.19;5194130;28;20425;-74
2021/12/21 05:12:00;;;;;;;41.35;16.95;;;;;;;-5.46;100.00;102526.63;5193895;28;20038;-76
2021/12/21 05:14:31;;;;;;;46.72;17.35;;;;;;;-5.46;100.00;102525.75;5193517;28;20034;-73
2021/12/21 05:17:03;;;;;;;37.87;15.67;;;;;;;-5.55;100.00;102529.31;5193960;28;20385;-74
2021/12/21 05:19:34;;;;;;;40.17;17.60;;;;;;;-5.53;100.00;102530.31;5193881;28;20067;-73
2021/12/21 05:22:06;;;;;;;37.50;17.27;;;;;;;-5.60;100.00;102524.63;5193728;28;20833;-75
2021/12/21 05:24:37;;;;;;;46.27;16.73;;;;;;;-5.47;100.00;102527.41;5193763;28;20034;-75
2021/12/21 05:27:09;;;;;;;45.63;17.00;;;;;;;-5.55;100.00;102526.78;5193439;28;20030;-73
2021/12/21 05:29:40;;;;;;;39.70;16.63;;;;;;;-5.52;100.00;102524.50;5193632;28;20034;-76
2021/12/21 05:32:12;;;;;;;44.00;18.07;;;;;;;-5.59;100.00;102529.81;5194091;28;20058;-74
2021/12/21 05:34:43;;;;;;;47.88;19.10;;;;;;;-5.52;100.00;102526.16;5193982;28;20025;-75
2021/12/21 05:37:15;;;;;;;43.27;19.80;;;;;;;-5.50;100.00;102522.94;5193587;28;20023;-76
2021/12/21 05:40:01;;;;;;;52.90;19.60;;;;;;;-5.52;100.00;102523.63;5193460;28;20469;-77
2021/12/21 05:42:32;;;;;;;38.22;17.38;;;;;;;-5.55;100.00;102516.63;5193802;28;20033;-76
2021/12/21 05:45:04;;;;;;;41.33;17.27;;;;;;;-5.63;100.00;102514.25;5193112;28;20030;-75
2021/12/21 05:47:36;;;;;;;41.00;16.98;;;;;;;-5.60;100.00;102523.00;5193273;28;20505;-76
2021/12/21 05:50:12;;;;;;;40.23;17.57;;;;;;;-5.65;100.00;102529.34;5193545;28;20034;-76
2021/12/21 05:52:44;;;;;;;36.03;18.15;;;;;;;-5.57;100.00;102533.41;5209487;28;20030;-78
2021/12/21 05:55:17;;;;;;;51.35;18.15;;;;;;;-5.58;100.00;102538.34;5213854;28;20037;-75
2021/12/21 05:57:49;;;;;;;42.42;19.27;;;;;;;-5.56;100.00;102532.63;5212410;28;20026;-75
2021/12/21 06:00:28;;;;;;;43.65;16.98;;;;;;;-5.60;100.00;102525.53;5213600;28;20032;-77
2021/12/21 06:03:01;;;;;;;46.25;18.40;;;;;;;-5.69;100.00;102523.13;5213467;28;20029;-76
2021/12/21 06:05:32;;;;;;;39.35;18.50;;;;;;;-5.58;100.00;102523.13;5213200;28;20030;-77
2021/12/21 06:08:04;;;;;;;45.57;18.90;;;;;;;-5.64;100.00;102520.94;5213314;28;20367;-77
2021/12/21 06:10:40;;;;;;;43.87;19.60;;;;;;;-5.64;100.00;102520.94;5213672;28;20489;-76
2021/12/21 06:26:49;;;;;;;45.55;18.88;;;;;;;-5.74;100.00;102526.94;5213527;28;20117;-74
2021/12/21 06:29:20;;;;;;;45.33;18.83;;;;;;;-5.67;100.00;102530.88;5213240;28;20033;-75
2021/12/21 06:31:52;;;;;;;49.60;20.40;;;;;;;-5.69;100.00;102530.75;5213212;28;20091;-74
2021/12/21 06:34:24;;;;;;;44.03;18.13;;;;;;;-5.71;100.00;102528.84;5212827;28;20168;-74
2021/12/21 06:36:55;;;;;;;40.33;19.38;;;;;;;-5.72;100.00;102521.97;5213443;28;20109;-75
2021/12/21 06:39:28;;;;;;;48.40;18.83;;;;;;;-5.72;100.00;102529.59;5215170;28;20179;-76
2021/12/21 06:42:01;;;;;;;43.22;18.98;;;;;;;-5.79;100.00;102517.19;5217223;28;20026;-75
2021/12/21 06:44:33;;;;;;;;;;;;;;;-5.83;100.00;102520.22;5217309;28;20022;-76
2021/12/21 06:52:45;;;;;;;45.92;20.25;;;;;;;-5.74;100.00;102531.16;5217374;28;20045;-75
2021/12/21 06:55:17;;;;;;;45.10;18.30;;;;;;;-5.81;100.00;102529.75;5216840;28;20121;-75
2021/12/21 06:57:48;;;;;;;44.20;19.67;;;;;;;-5.79;100.00;102528.22;5217126;28;20026;-76
2021/12/21 07:00:19;;;;;;;47.20;19.00;;;;;;;-5.83;100.00;102531.25;5216872;28;20037;-76
2021/12/21 07:02:51;;;;;;;47.77;19.03;;;;;;;-5.81;100.00;102526.31;5217117;28;20413;-75
2021/12/21 07:05:23;;;;;;;48.30;19.93;;;;;;;-5.87;100.00;102541.94;5216851;28;20030;-76
2021/12/21 07:07:55;;;;;;;40.67;18.37;;;;;;;-5.82;100.00;102534.72;5217706;28;20026;-76
2021/12/21 07:10:29;;;;;;;45.53;18.30;;;;;;;-5.88;100.00;102530.88;5220292;28;20117;-76
2021/12/21 07:18:40;;;;;;;47.28;19.25;;;;;;;-5.79;100.00;102532.44;5217591;28;20034;-76
2021/12/21 07:21:11;;;;;;;41.13;18.77;;;;;;;-5.79;100.00;102540.03;5199743;28;20041;-76
2021/12/21 07:23:43;;;;;;;52.17;20.07;;;;;;;-5.84;100.00;102541.28;5218746;28;20033;-76
2021/12/21 07:26:14;;;;;;;47.40;19.80;;;;;;;-5.80;100.00;102545.88;5218225;28;20037;-76
2021/12/21 07:28:46;;;;;;;49.57;19.83;;;;;;;-5.88;100.00;102540.16;5218766;28;20034;-76
2021/12/21 07:31:17;;;;;;;38.33;18.57;;;;;;;-5.82;100.00;102543.22;5222309;28;20049;-75
2021/12/21 07:33:48;;;;;;;42.97;18.37;;;;;;;-5.92;100.00;102540.69;5219107;28;20096;-76
2021/12/21 07:36:20;;;;;;;41.23;19.80;;;;;;;-5.90;100.00;102541.69;5216679;28;20029;-76
2021/12/21 07:38:51;;;;;;;53.60;19.83;;;;;;;-5.92;100.00;102541.56;5216727;28;20028;-76
2021/12/21 07:41:23;;;;;;;40.07;18.67;;;;;;;-5.95;100.00;102543.84;5216236;28;20030;-75
2021/12/21 07:43:54;;;;;;;39.10;17.83;;;;;;;-5.95;100.00;102548.06;5216379;28;20112;-76
2021/12/21 07:46:26;;;;;;;45.20;19.20;;;;;;;-5.96;100.00;102556.47;5215797;28;20033;-78
2021/12/21 07:48:58;;;;;;;43.47;18.33;;;;;;;-5.93;100.00;102549.94;5216217;28;20129;-77
2021/12/21 07:51:29;;;;;;;46.90;18.98;;;;;;;-5.89;100.00;102557.06;5214741;28;20026;-74
2021/12/21 07:54:01;;;;;;;45.33;19.27;;;;;;;-5.93;100.00;102556.69;5215549;28;20227;-75
2021/12/21 07:56:32;;;;;;;39.63;18.40;;;;;;;-5.89;100.00;102554.53;5215680;28;20026;-77
2021/12/21 07:59:04;;;;;;;44.10;19.00;;;;;;;-5.88;100.00;102553.75;5215656;28;20123;-77
2021/12/21 08:01:35;;;;;;;40.37;18.73;;;;;;;-5.89;100.00;102561.25;5215299;28;20060;-76
2021/12/21 08:04:07;;;;;;;42.37;18.03;;;;;;;-5.81;100.00;102561.88;5215472;28;20375;-77
2021/12/21 08:06:39;;;;;;;40.42;19.33;;;;;;;-5.84;100.00;102554.00;5215307;28;20030;-77
2021/12/21 08:09:11;;;;;;;43.10;19.77;;;;;;;-5.70;100.00;102567.09;5215504;28;20030;-77
2021/12/21 08:14:33;;;;;;;45.25;20.70;;;;;;;-5.66;100.00;102563.13;5215526;28;20030;-76
2021/12/21 08:17:04;;;;;;;47.70;21.13;;;;;;;-5.58;100.00;102558.69;5213592;28;20229;-75
2021/12/21 08:19:35;;;;;;;41.33;19.53;;;;;;;-5.52;100.00;102556.66;5215184;28;20109;-76
2021/12/21 08:22:07;;;;;;;43.43;20.13;;;;;;;-5.57;100.00;102556.28;5215222;28;20544;-76
2021/12/21 08:24:39;;;;;;;48.53;22.30;;;;;;;-5.57;100.00;102562.97;5215511;28;20048;-74
2021/12/21 08:27:11;;;;;;;;;;;;;;;-5.60;100.00;102553.47;5215394;28;20030;-75
2021/12/21 08:29:43;;;;;;;44.00;20.75;;;;;;;-5.52;100.00;102565.16;5214769;28;19925;-74
2021/12/21 08:32:14;;;;;;;51.27;20.20;;;;;;;-5.42;100.00;102555.75;5214597;28;20384;-74
2021/12/21 08:34:45;;;;;;;43.97;20.20;;;;;;;-5.48;100.00;102556.13;5215079;28;20482;-75
2021/12/21 08:37:17;;;;;;;37.53;17.90;;;;;;;-5.46;100.00;102552.03;5215013;28;20026;-75
2021/12/21 08:39:48;;;;;;;45.10;19.43;;;;;;;-5.40;100.00;102556.72;5214961;28;20022;-75
2021/12/21 08:42:20;;;;;;;38.33;20.13;;;;;;;-5.32;100.00;102561.66;5214274;28;20377;-74
2021/12/21 08:44:51;;;;;;;47.87;20.80;;;;;;;-5.21;100.00;102557.44;5215013;28;20025;-77
2021/12/21 08:47:22;;;;;;;46.87;21.77;;;;;;;-5.14;100.00;102556.28;5214337;28;20042;-77
2021/12/21 08:49:54;;;;;;;47.60;20.90;;;;;;;-4.95;100.00;102566.25;5214661;28;20101;-78
2021/12/21 08:52:25;;;;;;;48.93;23.53;;;;;;;-4.73;100.00;102562.81;5214935;28;20411;-74
2021/12/21 08:54:57;;;;;;;50.77;23.40;;;;;;;-4.48;100.00;102563.09;5214669;28;20057;-76
2021/12/21 08:57:29;;;;;;;50.07;23.93;;;;;;;-4.23;100.00;102563.31;5215187;28;20042;-78
2021/12/21 09:00:00;;;;;;;49.63;23.40;;;;;;;-4.01;100.00;102559.81;5214742;28;20036;-76
2021/12/21 09:02:35;;;;;;;50.80;23.93;;;;;;;-3.77;100.00;102559.09;5214081;28;20053;-76
2021/12/21 09:05:14;;;;;;;45.05;21.25;;;;;;;-3.47;100.00;102566.34;5214245;28;20029;-75
2021/12/21 09:07:47;;;;;;;49.88;22.80;;;;;;;-3.33;100.00;102569.13;5213972;28;20045;-77
2021/12/21 09:10:21;;;;;;;49.90;21.50;;;;;;;-2.97;100.00;102569.97;5213863;28;20134;-76
2021/12/21 09:12:52;;;;;;;43.08;20.13;;;;;;;-2.76;100.00;102569.72;5213891;28;20129;-73
2021/12/21 09:15:25;;;;;;;46.60;20.57;;;;;;;-2.53;100.00;102575.53;5214264;28;20105;-74
2021/12/21 09:17:57;;;;;;;;;;;;;;;-2.12;100.00;102572.41;5214095;28;20446;-75
2021/12/21 09:20:30;;;;;;;41.33;19.75;;;;;;;-2.18;100.00;102565.19;5213965;28;19963;-75
2021/12/21 09:23:02;;;;;;;;;;;;;;;-1.68;100.00;102575.34;5214314;28;20367;-76
2021/12/21 09:25:33;;;;;;;42.65;19.83;;;;;;;-1.79;100.00;102576.31;5213759;28;19917;-76
2021/12/21 09:28:04;;;;;;;38.83;17.30;;;;;;;-1.60;100.00;102575.84;5214086;28;20120;-76
2021/12/21 09:30:36;;;;;;;40.13;19.63;;;;;;;-1.25;100.00;102563.59;5213671;28;20096;-76
2021/12/21 09:33:07;;;;;;;48.27;21.47;;;;;;;-1.06;100.00;102569.09;5213989;28;20401;-78
2021/12/21 09:35:39;;;;;;;39.83;23.27;;;;;;;-0.83;100.00;102561.97;5213755;28;20021;-75
2021/12/21 09:38:11;;;;;;;46.23;22.53;;;;;;;-0.57;100.00;102559.31;5212537;28;20102;-76
2021/12/21 09:40:42;;;;;;;40.93;22.03;;;;;;;-0.47;100.00;102550.53;5214072;28;20355;-76
2021/12/21 09:43:14;;;;;;;32.93;20.70;;;;;;;-0.15;100.00;102560.97;5213863;28;20386;-75
2021/12/21 09:45:45;;;;;;;37.83;21.53;;;;;;;0.05;100.00;102562.13;5213647;28;20080;-75
2021/12/21 09:48:17;;;;;;;37.33;19.97;;;;;;;0.38;100.00;102559.78;5213290;28;20144;-75
2021/12/21 09:50:48;;;;;;;32.00;18.73;;;;;;;0.68;100.00;102563.19;5213752;28;20470;-75
2021/12/21 09:53:21;;;;;;;28.97;17.53;;;;;;;0.86;100.00;102561.63;5213646;28;20032;-75
2021/12/21 09:55:53;;;;;;;36.25;17.63;;;;;;;0.94;100.00;102556.94;5213062;28;20026;-74
2021/12/21 09:58:24;;;;;;;33.83;17.37;;;;;;;1.34;100.00;102558.22;5213571;28;20037;-76
2021/12/21 10:00:55;;;;;;;32.17;15.97;;;;;;;1.42;100.00;102559.53;5213681;28;20014;-75
2021/12/21 10:03:27;;;;;;;33.27;15.27;;;;;;;1.93;100.00;102557.00;5213230;28;20026;-76
2021/12/21 10:06:06;;;;;;;25.27;13.97;;;;;;;2.16;100.00;102550.47;5213537;28;20351;-75
2021/12/21 10:08:39;;;;;;;21.42;13.60;;;;;;;2.28;98.60;102545.03;5213272;28;20063;-74
2021/12/21 10:11:21;;;;;;;32.03;12.88;;;;;;;2.65;94.52;102541.69;5213419;28;21024;-75
2021/12/21 10:13:52;;;;;;;20.65;11.90;;;;;;;2.97;92.19;102544.91;5214402;28;20186;-73
2021/12/21 10:16:23;;;;;;;21.20;12.00;;;;;;;3.08;90.95;102542.00;5218145;28;20026;-74
2021/12/21 10:18:55;;;;;;;22.33;11.70;;;;;;;3.33;88.46;102542.25;5217844;28;20427;-74
2021/12/21 10:21:26;;;;;;;19.47;11.73;;;;;;;3.40;87.11;102547.75;5217695;28;20026;-74
2021/12/21 10:23:58;;;;;;;22.33;10.80;;;;;;;3.77;84.90;102546.81;5217558;28;20026;-73
2021/12/21 10:26:32;;;;;;;19.47;10.83;;;;;;;4.41;84.73;102544.28;5217428;28;20026;-74
2021/12/21 10:29:07;;;;;;;21.85;10.85;;;;;;;4.37;81.83;102532.94;5217514;28;20059;-74
2021/12/21 10:31:42;;;;;;;22.65;10.75;;;;;;;4.88;78.60;102528.09;5217359;28;20448;-75
2021/12/21 10:34:18;;;;;;;20.13;10.15;;;;;;;4.96;76.48;102535.25;5217239;28;20112;-74
2021/12/21 10:36:51;;;;;;;19.55;9.25;;;;;;;5.51;74.89;102534.75;5217267;28;20041;-74
2021/12/21 10:39:32;;;;;;;22.98;9.65;;;;;;;5.60;71.62;102526.41;5217081;28;20044;-77
2021/12/21 10:42:04;;;;;;;16.27;8.30;;;;;;;6.05;66.26;102515.94;5217028;28;20026;-74
2021/12/21 10:44:37;;;;;;;20.23;9.20;;;;;;;6.29;67.56;102528.81;5217547;28;20428;-74
2021/12/21 10:47:12;;;;;;;15.07;8.63;;;;;;;6.65;66.80;102524.75;5217130;28;20556;-77
2021/12/21 10:49:43;;;;;;;14.77;8.45;;;;;;;6.83;65.68;102519.28;5216832;28;20404;-73
2021/12/21 10:52:15;;;;;;;17.37;7.80;;;;;;;7.19;63.46;102518.63;5216866;28;20049;-75
2021/12/21 10:54:48;;;;;;;13.90;7.83;;;;;;;7.56;62.20;102523.13;5216488;28;20489;-74
2021/12/21 10:57:22;;;;;;;12.55;7.28;;;;;;;7.88;57.75;102520.53;5217148;28;20022;-74
2021/12/21 10:59:57;;;;;;;15.02;7.93;;;;;;;7.54;57.82;102521.34;5217244;28;20041;-74
2021/12/21 11:02:32;;;;;;;10.98;7.10;;;;;;;7.66;56.49;102517.38;5217106;28;20030;-73
2021/12/21 11:05:13;;;;;;;15.80;7.90;;;;;;;8.60;55.03;102508.47;5216653;28;20032;-75
2021/12/21 11:07:49;;;;;;;17.73;7.05;;;;;;;8.85;54.54;102516.81;5217229;28;20050;-76
2021/12/21 11:10:27;;;;;;;12.38;6.95;;;;;;;9.35;52.60;102521.34;5216908;28;20029;-75
2021/12/21 11:13:03;;;;;;;13.05;8.07;;;;;;;9.48;51.95;102515.50;5217367;28;20044;-75
2021/12/21 11:15:38;;;;;;;14.23;6.30;;;;;;;9.67;51.57;102509.81;5217091;28;20041;-75
2021/12/21 11:18:16;;;;;;;14.30;6.85;;;;;;;10.03;49.57;102511.34;5216678;28;20026;-73
2021/12/21 11:20:51;;;;;;;15.45;7.05;;;;;;;10.05;49.19;102511.38;5216632;28;20501;-74
2021/12/21 11:23:24;;;;;;;16.05;7.70;;;;;;;10.36;47.50;102509.28;5216766;28;20105;-75
2021/12/21 11:25:56;;;;;;;13.18;6.80;;;;;;;10.49;46.99;102508.63;5216498;28;20053;-74
2021/12/21 11:28:35;;;;;;;14.55;7.70;;;;;;;10.40;46.12;102495.47;5216417;28;20044;-75
2021/12/21 11:31:08;;;;;;;12.80;7.03;;;;;;;10.71;44.71;102495.91;5216915;28;20422;-76
2021/12/21 11:33:41;;;;;;;;;;;;;;;11.84;47.85;102491.13;5217331;28;20030;-74
2021/12/21 11:39:08;;;;;;;12.85;6.60;;;;;;;12.24;42.24;102468.84;5133255;29;20035;-76
2021/12/21 11:41:42;;;;;;;13.67;7.07;;;;;;;12.59;40.42;102459.47;5133586;29;20062;-76
2021/12/21 11:44:23;;;;;;;12.52;6.32;;;;;;;12.89;41.44;102459.63;5133590;29;20044;-73
2021/12/21 11:47:01;;;;;;;13.57;6.70;;;;;;;12.85;39.44;102460.50;5133052;29;20044;-74
2021/12/21 11:49:47;;;;;;;10.75;6.30;;;;;;;12.33;41.62;102461.94;5133519;29;20134;-73
2021/12/21 11:52:24;;;;;;;12.55;6.65;;;;;;;12.38;41.86;102468.06;5133719;29;20028;-76
2021/12/21 11:55:03;;;;;;;11.93;6.70;;;;;;;12.21;40.74;102461.84;5133365;29;20191;-76
2021/12/21 11:57:39;;;;;;;10.52;6.57;;;;;;;13.11;39.25;102456.22;5133296;29;20043;-76
2021/12/21 12:00:14;;;;;;;14.63;6.82;;;;;;;13.02;38.72;102457.94;5133324;29;20031;-79
2021/12/21 12:02:47;;;;;;;18.15;7.20;;;;;;;12.94;38.78;102457.88;5132918;29;20051;-76
2021/12/21 12:05:21;;;;;;;11.63;6.30;;;;;;;12.51;38.71;102455.06;5132913;29;20152;-75
2021/12/21 12:08:10;;;;;;;14.55;7.10;;;;;;;13.78;41.57;102443.25;5132903;29;20035;-76
2021/12/21 12:10:55;;;;;;;14.65;7.32;;;;;;;14.02;38.11;102450.25;5132880;29;20058;-76
2021/12/21 12:13:40;;;;;;;12.30;7.22;;;;;;;14.32;36.45;102449.34;5133238;29;20503;-75
2021/12/21 12:16:14;;;;;;;12.25;6.43;;;;;;;14.60;35.27;102441.44;5177765;28;20175;-76
2021/12/21 12:18:48;;;;;;;9.05;5.35;;;;;;;15.23;33.85;102437.66;5216074;28;20060;-74
2021/12/21 12:21:30;;;;;;;12.55;5.53;;;;;;;15.41;35.40;102436.72;5215456;28;20575;-76
2021/12/21 12:24:02;;;;;;;14.40;5.85;;;;;;;15.61;32.57;102434.78;5214205;28;20120;-74
2021/12/21 12:26:37;;;;;;;8.93;5.15;;;;;;;15.28;33.48;102436.78;5216294;28;20021;-75
2021/12/21 12:29:19;;;;;;;12.95;5.63;;;;;;;15.48;36.29;102441.03;5215965;28;20096;-77
2021/12/21 12:31:59;;;;;;;10.90;5.72;;;;;;;15.52;35.18;102444.50;5216039;28;20478;-76
2021/12/21 12:34:36;;;;;;;9.73;6.10;;;;;;;15.74;33.72;102439.97;5215720;28;20587;-78
2021/12/21 12:37:21;;;;;;;11.25;6.07;;;;;;;15.79;34.96;102433.81;5215116;28;20026;-77
2021/12/21 12:39:55;;;;;;;9.80;5.82;;;;;;;14.01;34.14;102431.03;5198677;28;20480;-73
2021/12/21 12:42:29;;;;;;;10.57;5.90;;;;;;;12.50;36.10;102428.03;5216090;28;20061;-72
2021/12/21 12:45:06;;;;;;;13.10;5.88;;;;;;;10.46;39.87;102430.34;5214962;28;20061;-76
2021/12/21 12:47:54;;;;;;;12.68;5.45;;;;;;;9.58;43.78;102423.75;5196762;28;20611;-78
2021/12/21 12:50:32;;;;;;;12.05;5.60;;;;;;;8.76;44.57;102422.16;5214952;28;20912;-76
2021/12/21 12:53:08;;;;;;;10.07;5.68;;;;;;;8.79;44.54;102412.66;5214892;28;20033;-75
2021/12/21 12:55:59;;;;;;;11.40;5.53;;;;;;;9.97;43.99;102406.16;5215169;28;20029;-75